sensor_id;sensor_type;location;lat;lon;timestamp;P1;durP1;ratioP1;P2;durP2;ratioP2
19004;SDS011;9635;52.078;8.648;2023-09-07T00:01:08;6.78;;;4.80;;
19004;SDS011;9635;52.078;8.648;2023-09-07T00:06:11;6.47;;;4.38;;
19004;SDS011;9635;52.078;8.648;2023-09-07T00:11:14;8.75;;;4.68;;
19004;SDS011;9635;52.078;8.648;2023-09-07T00:16:18;6.38;;;5.30;;
19004;SDS011;9635;52.078;8.648;2023-09-07T00:21:21;7.47;;;4.30;;
19004;SDS011;9635;52.078;8.648;2023-09-07T00:26:24;4.53;;;4.13;;
19004;SDS011;9635;52.078;8.648;2023-09-07T00:31:28;6.38;;;4.00;;
19004;SDS011;9635;52.078;8.648;2023-09-07T00:36:31;5.75;;;4.10;;
19004;SDS011;9635;52.078;8.648;2023-09-07T00:41:34;7.32;;;4.88;;
19004;SDS011;9635;52.078;8.648;2023-09-07T00:46:38;5.75;;;5.00;;
19004;SDS011;9635;52.078;8.648;2023-09-07T00:51:42;7.82;;;5.40;;
19004;SDS011;9635;52.078;8.648;2023-09-07T00:56:46;6.32;;;5.57;;
19004;SDS011;9635;52.078;8.648;2023-09-07T01:01:51;5.68;;;5.07;;
19004;SDS011;9635;52.078;8.648;2023-09-07T01:06:55;5.97;;;4.80;;
19004;SDS011;9635;52.078;8.648;2023-09-07T01:12:03;5.18;;;4.60;;
19004;SDS011;9635;52.078;8.648;2023-09-07T01:17:13;5.53;;;4.63;;
19004;SDS011;9635;52.078;8.648;2023-09-07T01:22:18;4.43;;;4.05;;
19004;SDS011;9635;52.078;8.648;2023-09-07T01:27:24;11.15;;;4.88;;
19004;SDS011;9635;52.078;8.648;2023-09-07T01:32:27;7.97;;;4.70;;
19004;SDS011;9635;52.078;8.648;2023-09-07T01:37:31;8.38;;;4.78;;
19004;SDS011;9635;52.078;8.648;2023-09-07T01:42:35;6.22;;;5.05;;
19004;SDS011;9635;52.078;8.648;2023-09-07T01:47:38;11.82;;;5.45;;
19004;SDS011;9635;52.078;8.648;2023-09-07T01:52:45;7.22;;;5.03;;
19004;SDS011;9635;52.078;8.648;2023-09-07T01:57:49;7.28;;;5.38;;
19004;SDS011;9635;52.078;8.648;2023-09-07T02:02:52;8.60;;;5.88;;
19004;SDS011;9635;52.078;8.648;2023-09-07T02:07:57;6.38;;;5.78;;
19004;SDS011;9635;52.078;8.648;2023-09-07T02:13:00;6.80;;;5.05;;
19004;SDS011;9635;52.078;8.648;2023-09-07T02:18:03;7.75;;;5.45;;
19004;SDS011;9635;52.078;8.648;2023-09-07T02:23:08;6.97;;;5.38;;
19004;SDS011;9635;52.078;8.648;2023-09-07T02:28:11;7.65;;;5.18;;
19004;SDS011;9635;52.078;8.648;2023-09-07T02:33:14;8.13;;;5.78;;
19004;SDS011;9635;52.078;8.648;2023-09-07T02:38:18;6.45;;;5.82;;
19004;SDS011;9635;52.078;8.648;2023-09-07T02:43:21;10.85;;;5.60;;
19004;SDS011;9635;52.078;8.648;2023-09-07T02:48:24;7.28;;;6.10;;
19004;SDS011;9635;52.078;8.648;2023-09-07T02:53:29;6.15;;;5.55;;
19004;SDS011;9635;52.078;8.648;2023-09-07T02:58:32;6.15;;;4.90;;
19004;SDS011;9635;52.078;8.648;2023-09-07T03:03:36;8.32;;;6.00;;
19004;SDS011;9635;52.078;8.648;2023-09-07T03:08:45;7.63;;;6.30;;
19004;SDS011;9635;52.078;8.648;2023-09-07T03:13:48;8.30;;;6.28;;
19004;SDS011;9635;52.078;8.648;2023-09-07T03:18:51;8.82;;;6.90;;
19004;SDS011;9635;52.078;8.648;2023-09-07T03:23:56;12.05;;;10.43;;
19004;SDS011;9635;52.078;8.648;2023-09-07T03:29:00;11.13;;;9.10;;
19004;SDS011;9635;52.078;8.648;2023-09-07T03:34:03;11.35;;;9.48;;
19004;SDS011;9635;52.078;8.648;2023-09-07T03:39:09;12.38;;;9.85;;
19004;SDS011;9635;52.078;8.648;2023-09-07T03:44:12;13.23;;;9.38;;
19004;SDS011;9635;52.078;8.648;2023-09-07T03:49:15;12.32;;;9.20;;
19004;SDS011;9635;52.078;8.648;2023-09-07T03:54:20;9.90;;;8.90;;
19004;SDS011;9635;52.078;8.648;2023-09-07T03:59:23;10.50;;;9.40;;
19004;SDS011;9635;52.078;8.648;2023-09-07T04:04:26;9.00;;;8.18;;
19004;SDS011;9635;52.078;8.648;2023-09-07T04:09:31;12.48;;;8.30;;
19004;SDS011;9635;52.078;8.648;2023-09-07T04:14:34;9.75;;;8.00;;
19004;SDS011;9635;52.078;8.648;2023-09-07T04:19:37;9.32;;;8.20;;
19004;SDS011;9635;52.078;8.648;2023-09-07T04:24:41;10.35;;;7.82;;
19004;SDS011;9635;52.078;8.648;2023-09-07T04:29:44;10.75;;;8.00;;
19004;SDS011;9635;52.078;8.648;2023-09-07T04:34:47;10.23;;;8.30;;
19004;SDS011;9635;52.078;8.648;2023-09-07T04:39:56;10.30;;;8.80;;
19004;SDS011;9635;52.078;8.648;2023-09-07T04:44:59;12.07;;;8.68;;
19004;SDS011;9635;52.078;8.648;2023-09-07T04:50:02;10.68;;;8.10;;
19004;SDS011;9635;52.078;8.648;2023-09-07T04:55:07;8.80;;;6.22;;
19004;SDS011;9635;52.078;8.648;2023-09-07T05:00:11;8.13;;;6.75;;
19004;SDS011;9635;52.078;8.648;2023-09-07T05:05:15;9.23;;;6.80;;
19004;SDS011;9635;52.078;8.648;2023-09-07T05:10:20;8.63;;;6.68;;
19004;SDS011;9635;52.078;8.648;2023-09-07T05:15:23;7.10;;;6.15;;
19004;SDS011;9635;52.078;8.648;2023-09-07T05:20:26;9.18;;;6.05;;
19004;SDS011;9635;52.078;8.648;2023-09-07T05:25:33;7.88;;;5.80;;
19004;SDS011;9635;52.078;8.648;2023-09-07T05:30:37;7.80;;;5.70;;
19004;SDS011;9635;52.078;8.648;2023-09-07T05:35:40;6.88;;;5.60;;
19004;SDS011;9635;52.078;8.648;2023-09-07T05:40:45;6.03;;;5.18;;
19004;SDS011;9635;52.078;8.648;2023-09-07T05:45:52;7.05;;;5.93;;
19004;SDS011;9635;52.078;8.648;2023-09-07T05:50:55;10.25;;;6.22;;
19004;SDS011;9635;52.078;8.648;2023-09-07T05:55:59;6.60;;;5.45;;
19004;SDS011;9635;52.078;8.648;2023-09-07T06:01:02;11.38;;;5.50;;
19004;SDS011;9635;52.078;8.648;2023-09-07T06:06:07;7.15;;;5.55;;
19004;SDS011;9635;52.078;8.648;2023-09-07T06:11:11;5.85;;;5.25;;
19004;SDS011;9635;52.078;8.648;2023-09-07T06:16:14;7.38;;;5.45;;
19004;SDS011;9635;52.078;8.648;2023-09-07T06:21:17;8.15;;;4.68;;
19004;SDS011;9635;52.078;8.648;2023-09-07T06:26:22;10.73;;;5.30;;
19004;SDS011;9635;52.078;8.648;2023-09-07T06:31:28;6.47;;;5.43;;
19004;SDS011;9635;52.078;8.648;2023-09-07T06:36:31;7.82;;;5.93;;
19004;SDS011;9635;52.078;8.648;2023-09-07T06:41:49;6.45;;;5.55;;
19004;SDS011;9635;52.078;8.648;2023-09-07T06:46:56;8.65;;;5.88;;
19004;SDS011;9635;52.078;8.648;2023-09-07T06:51:59;9.18;;;6.25;;
19004;SDS011;9635;52.078;8.648;2023-09-07T06:57:04;8.63;;;5.90;;
19004;SDS011;9635;52.078;8.648;2023-09-07T07:02:09;10.52;;;6.50;;
19004;SDS011;9635;52.078;8.648;2023-09-07T07:07:12;11.57;;;6.25;;
19004;SDS011;9635;52.078;8.648;2023-09-07T07:12:16;12.70;;;6.55;;
19004;SDS011;9635;52.078;8.648;2023-09-07T07:17:20;13.32;;;6.70;;
19004;SDS011;9635;52.078;8.648;2023-09-07T07:22:23;12.55;;;6.18;;
19004;SDS011;9635;52.078;8.648;2023-09-07T07:27:28;11.48;;;6.22;;
19004;SDS011;9635;52.078;8.648;2023-09-07T07:32:32;14.77;;;5.20;;
19004;SDS011;9635;52.078;8.648;2023-09-07T07:37:35;7.22;;;5.45;;
19004;SDS011;9635;52.078;8.648;2023-09-07T07:42:40;9.80;;;5.07;;
19004;SDS011;9635;52.078;8.648;2023-09-07T07:47:43;7.60;;;5.38;;
19004;SDS011;9635;52.078;8.648;2023-09-07T07:52:46;6.05;;;5.03;;
19004;SDS011;9635;52.078;8.648;2023-09-07T07:57:51;8.15;;;4.43;;
19004;SDS011;9635;52.078;8.648;2023-09-07T08:02:55;8.07;;;4.35;;
19004;SDS011;9635;52.078;8.648;2023-09-07T08:07:58;7.65;;;4.55;;
19004;SDS011;9635;52.078;8.648;2023-09-07T08:13:04;7.35;;;4.57;;
19004;SDS011;9635;52.078;8.648;2023-09-07T08:18:07;4.95;;;4.53;;
19004;SDS011;9635;52.078;8.648;2023-09-07T08:23:12;6.63;;;4.45;;
19004;SDS011;9635;52.078;8.648;2023-09-07T08:28:16;4.88;;;3.95;;
19004;SDS011;9635;52.078;8.648;2023-09-07T08:33:20;6.03;;;4.55;;
19004;SDS011;9635;52.078;8.648;2023-09-07T08:38:25;6.38;;;4.03;;
19004;SDS011;9635;52.078;8.648;2023-09-07T08:43:31;4.90;;;4.50;;
19004;SDS011;9635;52.078;8.648;2023-09-07T08:48:36;5.32;;;3.85;;
19004;SDS011;9635;52.078;8.648;2023-09-07T08:53:39;5.18;;;4.30;;
19004;SDS011;9635;52.078;8.648;2023-09-07T08:58:49;10.27;;;4.43;;
19004;SDS011;9635;52.078;8.648;2023-09-07T09:03:51;4.55;;;4.15;;
19004;SDS011;9635;52.078;8.648;2023-09-07T09:08:56;7.55;;;4.07;;
19004;SDS011;9635;52.078;8.648;2023-09-07T09:14:05;6.97;;;4.28;;
19004;SDS011;9635;52.078;8.648;2023-09-07T09:19:08;6.88;;;4.45;;
19004;SDS011;9635;52.078;8.648;2023-09-07T09:24:11;6.28;;;4.10;;
19004;SDS011;9635;52.078;8.648;2023-09-07T09:29:17;5.50;;;4.10;;
19004;SDS011;9635;52.078;8.648;2023-09-07T09:34:24;8.88;;;4.10;;
19004;SDS011;9635;52.078;8.648;2023-09-07T09:39:27;6.00;;;4.20;;
19004;SDS011;9635;52.078;8.648;2023-09-07T09:44:32;5.47;;;3.97;;
19004;SDS011;9635;52.078;8.648;2023-09-07T09:49:35;6.22;;;3.75;;
19004;SDS011;9635;52.078;8.648;2023-09-07T09:54:39;7.18;;;4.35;;
19004;SDS011;9635;52.078;8.648;2023-09-07T09:59:44;7.53;;;4.00;;
19004;SDS011;9635;52.078;8.648;2023-09-07T10:04:47;5.28;;;4.22;;
19004;SDS011;9635;52.078;8.648;2023-09-07T10:09:50;4.28;;;3.88;;
19004;SDS011;9635;52.078;8.648;2023-09-07T10:14:54;8.18;;;4.10;;
19004;SDS011;9635;52.078;8.648;2023-09-07T10:20:02;6.50;;;3.70;;
19004;SDS011;9635;52.078;8.648;2023-09-07T10:25:17;5.18;;;4.15;;
19004;SDS011;9635;52.078;8.648;2023-09-07T10:30:23;6.82;;;4.13;;
19004;SDS011;9635;52.078;8.648;2023-09-07T10:35:26;3.88;;;3.58;;
19004;SDS011;9635;52.078;8.648;2023-09-07T10:40:31;5.85;;;4.30;;
19004;SDS011;9635;52.078;8.648;2023-09-07T10:45:35;5.75;;;3.60;;
19004;SDS011;9635;52.078;8.648;2023-09-07T10:50:42;7.82;;;3.85;;
19004;SDS011;9635;52.078;8.648;2023-09-07T10:55:45;4.88;;;3.90;;
19004;SDS011;9635;52.078;8.648;2023-09-07T11:00:50;8.25;;;3.92;;
19004;SDS011;9635;52.078;8.648;2023-09-07T11:05:55;4.47;;;3.67;;
19004;SDS011;9635;52.078;8.648;2023-09-07T11:11:01;4.57;;;3.40;;
19004;SDS011;9635;52.078;8.648;2023-09-07T11:16:08;6.20;;;3.60;;
19004;SDS011;9635;52.078;8.648;2023-09-07T11:21:12;4.57;;;3.42;;
19004;SDS011;9635;52.078;8.648;2023-09-07T11:26:15;3.35;;;2.97;;
19004;SDS011;9635;52.078;8.648;2023-09-07T11:31:20;4.90;;;3.40;;
19004;SDS011;9635;52.078;8.648;2023-09-07T11:36:24;3.80;;;3.45;;
19004;SDS011;9635;52.078;8.648;2023-09-07T11:41:27;4.53;;;3.50;;
19004;SDS011;9635;52.078;8.648;2023-09-07T11:46:31;3.55;;;3.30;;
19004;SDS011;9635;52.078;8.648;2023-09-07T11:51:34;3.45;;;2.90;;
19004;SDS011;9635;52.078;8.648;2023-09-07T11:56:37;5.40;;;3.08;;
19004;SDS011;9635;52.078;8.648;2023-09-07T12:01:43;3.60;;;2.97;;
19004;SDS011;9635;52.078;8.648;2023-09-07T12:06:46;4.43;;;3.55;;
19004;SDS011;9635;52.078;8.648;2023-09-07T12:11:49;3.50;;;3.20;;
19004;SDS011;9635;52.078;8.648;2023-09-07T12:16:53;5.70;;;3.25;;
19004;SDS011;9635;52.078;8.648;2023-09-07T12:21:57;3.53;;;2.75;;
19004;SDS011;9635;52.078;8.648;2023-09-07T12:27:00;4.88;;;3.20;;
19004;SDS011;9635;52.078;8.648;2023-09-07T12:32:05;5.63;;;3.58;;
19004;SDS011;9635;52.078;8.648;2023-09-07T12:37:08;6.95;;;3.22;;
19004;SDS011;9635;52.078;8.648;2023-09-07T12:42:11;3.72;;;3.25;;
19004;SDS011;9635;52.078;8.648;2023-09-07T12:47:16;4.45;;;3.25;;
19004;SDS011;9635;52.078;8.648;2023-09-07T12:52:19;3.30;;;3.00;;
19004;SDS011;9635;52.078;8.648;2023-09-07T12:57:22;3.00;;;2.63;;
19004;SDS011;9635;52.078;8.648;2023-09-07T13:02:26;3.28;;;2.97;;
19004;SDS011;9635;52.078;8.648;2023-09-07T13:07:29;6.65;;;3.42;;
19004;SDS011;9635;52.078;8.648;2023-09-07T13:12:33;5.95;;;2.90;;
19004;SDS011;9635;52.078;8.648;2023-09-07T13:17:37;5.43;;;3.35;;
19004;SDS011;9635;52.078;8.648;2023-09-07T13:22:41;2.90;;;2.70;;
19004;SDS011;9635;52.078;8.648;2023-09-07T13:27:44;3.25;;;2.70;;
19004;SDS011;9635;52.078;8.648;2023-09-07T13:32:48;3.20;;;2.75;;
19004;SDS011;9635;52.078;8.648;2023-09-07T13:37:51;4.28;;;2.92;;
19004;SDS011;9635;52.078;8.648;2023-09-07T13:42:54;7.05;;;2.80;;
19004;SDS011;9635;52.078;8.648;2023-09-07T13:47:58;2.83;;;2.63;;
19004;SDS011;9635;52.078;8.648;2023-09-07T13:53:02;2.85;;;2.55;;
19004;SDS011;9635;52.078;8.648;2023-09-07T13:58:05;4.25;;;2.75;;
19004;SDS011;9635;52.078;8.648;2023-09-07T14:03:09;3.53;;;3.22;;
19004;SDS011;9635;52.078;8.648;2023-09-07T14:08:12;3.50;;;3.03;;
19004;SDS011;9635;52.078;8.648;2023-09-07T14:13:17;3.17;;;2.80;;
19004;SDS011;9635;52.078;8.648;2023-09-07T14:18:21;5.68;;;2.67;;
19004;SDS011;9635;52.078;8.648;2023-09-07T14:23:25;4.28;;;3.30;;
19004;SDS011;9635;52.078;8.648;2023-09-07T14:28:28;3.38;;;3.03;;
19004;SDS011;9635;52.078;8.648;2023-09-07T14:33:32;4.38;;;2.80;;
19004;SDS011;9635;52.078;8.648;2023-09-07T14:38:35;5.97;;;3.90;;
19004;SDS011;9635;52.078;8.648;2023-09-07T14:43:42;4.43;;;3.25;;
19004;SDS011;9635;52.078;8.648;2023-09-07T14:48:46;3.47;;;3.17;;
19004;SDS011;9635;52.078;8.648;2023-09-07T14:53:50;3.40;;;3.20;;
19004;SDS011;9635;52.078;8.648;2023-09-07T14:58:53;4.32;;;3.70;;
19004;SDS011;9635;52.078;8.648;2023-09-07T15:03:57;6.53;;;3.70;;
19004;SDS011;9635;52.078;8.648;2023-09-07T15:09:00;4.10;;;3.65;;
19004;SDS011;9635;52.078;8.648;2023-09-07T15:14:03;5.50;;;3.15;;
19004;SDS011;9635;52.078;8.648;2023-09-07T15:19:08;3.65;;;3.35;;
19004;SDS011;9635;52.078;8.648;2023-09-07T15:24:11;5.70;;;4.15;;
19004;SDS011;9635;52.078;8.648;2023-09-07T15:29:15;8.13;;;5.20;;
19004;SDS011;9635;52.078;8.648;2023-09-07T15:34:20;4.13;;;3.75;;
19004;SDS011;9635;52.078;8.648;2023-09-07T15:39:22;3.85;;;3.50;;
19004;SDS011;9635;52.078;8.648;2023-09-07T15:44:28;5.57;;;3.30;;
19004;SDS011;9635;52.078;8.648;2023-09-07T15:49:32;3.92;;;3.47;;
19004;SDS011;9635;52.078;8.648;2023-09-07T15:54:35;4.15;;;3.85;;
19004;SDS011;9635;52.078;8.648;2023-09-07T15:59:38;3.95;;;3.65;;
19004;SDS011;9635;52.078;8.648;2023-09-07T16:04:42;6.07;;;3.65;;
19004;SDS011;9635;52.078;8.648;2023-09-07T16:09:45;5.00;;;3.80;;
19004;SDS011;9635;52.078;8.648;2023-09-07T16:14:49;6.32;;;3.60;;
19004;SDS011;9635;52.078;8.648;2023-09-07T16:19:53;4.88;;;3.55;;
19004;SDS011;9635;52.078;8.648;2023-09-07T16:24:57;5.05;;;3.67;;
19004;SDS011;9635;52.078;8.648;2023-09-07T16:30:00;5.70;;;3.75;;
19004;SDS011;9635;52.078;8.648;2023-09-07T16:35:05;6.68;;;4.03;;
19004;SDS011;9635;52.078;8.648;2023-09-07T16:40:08;7.05;;;4.30;;
19004;SDS011;9635;52.078;8.648;2023-09-07T16:45:12;7.45;;;4.00;;
19004;SDS011;9635;52.078;8.648;2023-09-07T16:50:16;4.57;;;4.13;;
19004;SDS011;9635;52.078;8.648;2023-09-07T16:55:19;10.57;;;4.32;;
19004;SDS011;9635;52.078;8.648;2023-09-07T17:00:22;5.35;;;4.45;;
19004;SDS011;9635;52.078;8.648;2023-09-07T17:05:26;5.00;;;4.47;;
19004;SDS011;9635;52.078;8.648;2023-09-07T17:10:30;6.28;;;4.78;;
19004;SDS011;9635;52.078;8.648;2023-09-07T17:15:33;7.32;;;4.70;;
19004;SDS011;9635;52.078;8.648;2023-09-07T17:20:37;7.88;;;4.57;;
19004;SDS011;9635;52.078;8.648;2023-09-07T17:25:40;5.85;;;4.38;;
19004;SDS011;9635;52.078;8.648;2023-09-07T17:30:43;6.43;;;4.28;;
19004;SDS011;9635;52.078;8.648;2023-09-07T17:35:48;6.00;;;4.90;;
19004;SDS011;9635;52.078;8.648;2023-09-07T17:40:55;6.65;;;5.30;;
19004;SDS011;9635;52.078;8.648;2023-09-07T17:45:58;7.32;;;5.40;;
19004;SDS011;9635;52.078;8.648;2023-09-07T17:51:02;7.53;;;4.72;;
19004;SDS011;9635;52.078;8.648;2023-09-07T17:56:05;6.30;;;4.68;;
19004;SDS011;9635;52.078;8.648;2023-09-07T18:01:09;7.25;;;4.63;;
19004;SDS011;9635;52.078;8.648;2023-09-07T18:06:14;6.00;;;4.78;;
19004;SDS011;9635;52.078;8.648;2023-09-07T18:11:17;6.00;;;5.03;;
19004;SDS011;9635;52.078;8.648;2023-09-07T18:16:21;6.30;;;5.70;;
19004;SDS011;9635;52.078;8.648;2023-09-07T18:21:26;7.82;;;5.68;;
19004;SDS011;9635;52.078;8.648;2023-09-07T18:26:30;10.43;;;6.47;;
19004;SDS011;9635;52.078;8.648;2023-09-07T18:31:33;10.27;;;6.38;;
19004;SDS011;9635;52.078;8.648;2023-09-07T18:36:38;8.35;;;5.97;;
19004;SDS011;9635;52.078;8.648;2023-09-07T18:41:41;7.65;;;6.10;;
19004;SDS011;9635;52.078;8.648;2023-09-07T18:46:43;8.48;;;6.57;;
19004;SDS011;9635;52.078;8.648;2023-09-07T18:51:50;8.77;;;6.03;;
19004;SDS011;9635;52.078;8.648;2023-09-07T18:56:52;6.57;;;5.85;;
19004;SDS011;9635;52.078;8.648;2023-09-07T19:01:55;10.60;;;6.15;;
19004;SDS011;9635;52.078;8.648;2023-09-07T19:07:00;7.75;;;5.72;;
19004;SDS011;9635;52.078;8.648;2023-09-07T19:12:04;9.80;;;6.05;;
19004;SDS011;9635;52.078;8.648;2023-09-07T19:17:07;7.70;;;5.53;;
19004;SDS011;9635;52.078;8.648;2023-09-07T19:22:11;6.88;;;5.28;;
19004;SDS011;9635;52.078;8.648;2023-09-07T19:27:14;6.72;;;5.35;;
19004;SDS011;9635;52.078;8.648;2023-09-07T19:32:17;8.95;;;5.10;;
19004;SDS011;9635;52.078;8.648;2023-09-07T19:37:22;5.25;;;4.75;;
19004;SDS011;9635;52.078;8.648;2023-09-07T19:42:25;7.05;;;4.50;;
19004;SDS011;9635;52.078;8.648;2023-09-07T19:47:28;6.55;;;4.85;;
19004;SDS011;9635;52.078;8.648;2023-09-07T19:52:32;6.38;;;4.90;;
19004;SDS011;9635;52.078;8.648;2023-09-07T19:57:35;7.35;;;4.80;;
19004;SDS011;9635;52.078;8.648;2023-09-07T20:02:38;8.60;;;4.60;;
19004;SDS011;9635;52.078;8.648;2023-09-07T20:07:43;4.82;;;4.22;;
19004;SDS011;9635;52.078;8.648;2023-09-07T20:12:50;6.40;;;4.00;;
19004;SDS011;9635;52.078;8.648;2023-09-07T20:17:53;5.03;;;4.30;;
19004;SDS011;9635;52.078;8.648;2023-09-07T20:22:58;8.70;;;4.57;;
19004;SDS011;9635;52.078;8.648;2023-09-07T20:34:48;6.50;;;4.47;;
19004;SDS011;9635;52.078;8.648;2023-09-07T20:39:52;6.00;;;4.25;;
19004;SDS011;9635;52.078;8.648;2023-09-07T20:44:57;7.53;;;4.32;;
19004;SDS011;9635;52.078;8.648;2023-09-07T20:50:03;7.63;;;4.50;;
19004;SDS011;9635;52.078;8.648;2023-09-07T20:55:08;5.28;;;4.32;;
19004;SDS011;9635;52.078;8.648;2023-09-07T21:00:12;6.25;;;4.20;;
19004;SDS011;9635;52.078;8.648;2023-09-07T21:05:16;6.78;;;4.53;;
19004;SDS011;9635;52.078;8.648;2023-09-07T21:10:20;7.47;;;4.53;;
19004;SDS011;9635;52.078;8.648;2023-09-07T21:15:23;10.57;;;4.82;;
19004;SDS011;9635;52.078;8.648;2023-09-07T21:20:26;7.50;;;4.50;;
19004;SDS011;9635;52.078;8.648;2023-09-07T21:25:30;7.10;;;4.82;;
19004;SDS011;9635;52.078;8.648;2023-09-07T21:30:33;4.90;;;4.30;;
19004;SDS011;9635;52.078;8.648;2023-09-07T21:35:36;5.88;;;4.63;;
19004;SDS011;9635;52.078;8.648;2023-09-07T21:40:40;4.75;;;4.35;;
19004;SDS011;9635;52.078;8.648;2023-09-07T21:45:43;10.48;;;5.18;;
19004;SDS011;9635;52.078;8.648;2023-09-07T21:50:46;4.70;;;4.30;;
19004;SDS011;9635;52.078;8.648;2023-09-07T21:55:51;5.15;;;4.60;;
19004;SDS011;9635;52.078;8.648;2023-09-07T22:00:54;6.10;;;5.25;;
19004;SDS011;9635;52.078;8.648;2023-09-07T22:05:57;6.55;;;4.95;;
19004;SDS011;9635;52.078;8.648;2023-09-07T22:11:01;6.32;;;5.38;;
19004;SDS011;9635;52.078;8.648;2023-09-07T22:16:04;7.00;;;4.75;;
19004;SDS011;9635;52.078;8.648;2023-09-07T22:21:07;8.68;;;5.45;;
19004;SDS011;9635;52.078;8.648;2023-09-07T22:26:12;9.77;;;5.22;;
19004;SDS011;9635;52.078;8.648;2023-09-07T22:31:15;6.22;;;5.30;;
19004;SDS011;9635;52.078;8.648;2023-09-07T22:36:19;10.20;;;5.95;;
19004;SDS011;9635;52.078;8.648;2023-09-07T22:41:23;6.18;;;5.53;;
19004;SDS011;9635;52.078;8.648;2023-09-07T22:46:26;5.57;;;5.07;;
19004;SDS011;9635;52.078;8.648;2023-09-07T22:51:29;7.32;;;5.03;;
19004;SDS011;9635;52.078;8.648;2023-09-07T22:56:34;7.05;;;5.20;;
19004;SDS011;9635;52.078;8.648;2023-09-07T23:01:37;9.18;;;5.55;;
19004;SDS011;9635;52.078;8.648;2023-09-07T23:06:40;7.82;;;5.45;;
19004;SDS011;9635;52.078;8.648;2023-09-07T23:11:44;6.25;;;5.10;;
19004;SDS011;9635;52.078;8.648;2023-09-07T23:16:47;6.03;;;5.45;;
19004;SDS011;9635;52.078;8.648;2023-09-07T23:21:53;6.93;;;5.60;;
19004;SDS011;9635;52.078;8.648;2023-09-07T23:26:57;7.63;;;5.45;;
19004;SDS011;9635;52.078;8.648;2023-09-07T23:32:00;7.45;;;5.63;;
19004;SDS011;9635;52.078;8.648;2023-09-07T23:37:03;8.68;;;5.45;;
19004;SDS011;9635;52.078;8.648;2023-09-07T23:42:07;7.72;;;5.40;;
19004;SDS011;9635;52.078;8.648;2023-09-07T23:47:10;9.45;;;5.18;;
19004;SDS011;9635;52.078;8.648;2023-09-07T23:52:13;7.60;;;5.63;;
19004;SDS011;9635;52.078;8.648;2023-09-07T23:57:18;8.27;;;6.18;;
